Observation data for Northfield on 06/14/2019      Previous  Date  Next       Current Mesonet Observations  Soil Data  Daily Summary Page  Observations in Plain Language
KNOR 140500Z 13008KT 21/12 A2998 RMK A01 T02130124  RH  059%=      5-min Rain = 0
KNOR 140505Z 13009KT 21/12 A2999 RMK A01 T02130124  RH  059%=      5-min Rain = 0
KNOR 140510Z 13009KT 21/12 A2999 RMK A01 T02140124  RH  059%=      5-min Rain = 0
KNOR 140515Z 13009KT 22/12 A2999 RMK A01 T02150123  RH  058%=      5-min Rain = 0
KNOR 140520Z 12008KT 22/12 A2999 RMK A01 T02150123  RH  058%=      5-min Rain = 0
KNOR 140525Z 12008KT 22/12 A2999 RMK A01 T02150123  RH  058%=      5-min Rain = 0
KNOR 140530Z 12008KT 21/12 A30 RMK A01 T02140124  RH  059%=      5-min Rain = 0
KNOR 140535Z 12008KT 21/12 A30 RMK A01 T02130124  RH  059%=      5-min Rain = 0
KNOR 140540Z 12008KT 21/13 A30 RMK A01 T02120125  RH  060%=      5-min Rain = 0
KNOR 140545Z 13008KT 21/13 A30 RMK A01 T02110125  RH  060%=      5-min Rain = 0
KNOR 140550Z 13007KT 21/13 A30 RMK A01 T02100125  RH  060%=      5-min Rain = 0
KNOR 140555Z 13008KT 21/13 A30 RMK A01 T02090125  RH  061%=      5-min Rain = 0
KNOR 140600Z 14008KT 21/12 A2999 RMK A01 T02090124  RH  061%=      5-min Rain = 0
KNOR 140605Z 14009KT 21/12 A2999 RMK A01 T02080124  RH  061%=      5-min Rain = 0
KNOR 140610Z 14009G14KT 21/12 A2999 RMK A01 T02090124  RH  061%=      5-min Rain = 0
KNOR 140615Z 14009KT 21/12 A2999 RMK A01 T02100123  RH  060%=      5-min Rain = 0
KNOR 140620Z 14008KT 21/12 A2998 RMK A01 T02100123  RH  060%=      5-min Rain = 0
KNOR 140625Z 14008KT 21/12 A2999 RMK A01 T02100122  RH  059%=      5-min Rain = 0
KNOR 140630Z 14007KT 21/12 A2999 RMK A01 T02110122  RH  059%=      5-min Rain = 0
KNOR 140635Z 14008KT 21/12 A2999 RMK A01 T02120121  RH  058%=      5-min Rain = 0
KNOR 140640Z 13007KT 21/12 A2999 RMK A01 T02120121  RH  058%=      5-min Rain = 0
KNOR 140645Z 14007G13KT 21/12 A2999 RMK A01 T02130120  RH  057%=      5-min Rain = 0
KNOR 140650Z 13005KT 21/12 A30 RMK A01 T02130120  RH  057%=      5-min Rain = 0
KNOR 140655Z 36004KT 21/12 A3002 RMK A01 T02130121  RH  058%=      5-min Rain = 0
KNOR 140700Z 33007KT 21/12 A3004 RMK A01 T02100123  RH  060%=      5-min Rain = 0
KNOR 140705Z 32008KT 21/13 A3005 RMK A01 T02110125  RH  060%=      5-min Rain = 0
KNOR 140710Z 32007KT 21/13 A3006 RMK A01 T02100125  RH  061%=      5-min Rain = 0
KNOR 140715Z 32007KT 21/13 A3007 RMK A01 T02110125  RH  060%=      5-min Rain = 0
KNOR 140720Z 32010KT 21/13 A3008 RMK A01 T02110129  RH  062%=      5-min Rain = 0
KNOR 140725Z 34012KT 20/14 A3008 RMK A01 T02020137  RH  069%=      5-min Rain = 0
KNOR 140730Z 35010G15KT 20/14 A3007 RMK A01 T01970140  RH  072%=      5-min Rain = 0
KNOR 140735Z 04011KT 20/14 A3004 RMK A01 T01960140  RH  073%=      5-min Rain = 0
KNOR 140740Z 07006G12KT 20/14 A3003 RMK A01 T02030137  RH  068%=      5-min Rain = 0
KNOR 140745Z 09010G15KT 20/14 A3001 RMK A01 T01980142  RH  073%=      5-min Rain = 0
KNOR 140750Z 12010KT 20/14 A30 RMK A01 T01990140  RH  072%=      5-min Rain = 0
KNOR 140755Z 11007KT 19/14 A30 RMK A01 T01920144  RH  077%=      5-min Rain = 0
KNOR 140800Z 06005KT 19/14 A3001 RMK A01 T01900144  RH  078%=      5-min Rain = 0
KNOR 140805Z 01008KT 19/15 A3003 RMK A01 T01880149  RH  081%=      5-min Rain = 0
KNOR 140810Z 02006KT 19/15 A3003 RMK A01 T01880150  RH  082%=      5-min Rain = 0
KNOR 140815Z 04005KT 19/15 A3003 RMK A01 T01890148  RH  081%=      5-min Rain = 0
KNOR 140820Z 06004KT 19/15 A3003 RMK A01 T01900148  RH  080%=      5-min Rain = 0
KNOR 140825Z 07003KT 19/15 A3003 RMK A01 T01910148  RH  080%=      5-min Rain = 0
KNOR 140830Z 05005KT 19/15 A3003 RMK A01 T01910149  RH  080%=      5-min Rain = 0
KNOR 140835Z 05006KT 19/15 A3003 RMK A01 T01900149  RH  080%=      5-min Rain = 0
KNOR 140840Z 07006KT 19/15 A3002 RMK A01 T01890149  RH  081%=      5-min Rain = 0
KNOR 140845Z 08007KT 19/15 A3001 RMK A01 T01880147  RH  081%=      5-min Rain = 0
KNOR 140850Z 10008KT 19/15 A30 RMK A01 T01880147  RH  081%=      5-min Rain = 0
KNOR 140855Z 10007KT 19/15 A2999 RMK A01 T01860147  RH  081%=      5-min Rain = 0
KNOR 140900Z 09005KT 19/15 A2999 RMK A01 T01870146  RH  081%=      5-min Rain = 0
KNOR 140905Z 10007KT 19/15 A2999 RMK A01 T01870145  RH  080%=      5-min Rain = 0
KNOR 140910Z 10008G13KT 19/14 A2998 RMK A01 T01870144  RH  080%=      5-min Rain = 0
KNOR 140915Z 09006KT 19/14 A2999 RMK A01 T01880143  RH  079%=      5-min Rain = 0
KNOR 140920Z 08006KT 19/14 A2999 RMK A01 T01870143  RH  079%=      5-min Rain = 0
KNOR 140925Z 07007KT 19/14 A2999 RMK A01 T01860143  RH  079%=      5-min Rain = 0
KNOR 140930Z 06006KT 19/14 A30 RMK A01 T01850144  RH  080%=      5-min Rain = 0
KNOR 140935Z 07007KT 18/15 A30 RMK A01 T01820146  RH  083%=      5-min Rain = 0
KNOR 140940Z 08007KT 18/15 A2999 RMK A01 T01820146  RH  083%=      5-min Rain = 0
KNOR 140945Z 09008KT 18/15 A2999 RMK A01 T01830145  RH  082%=      5-min Rain = 0
KNOR 140950Z 09007KT 19/14 A2999 RMK A01 T01850144  RH  080%=      5-min Rain = 0
KNOR 140955Z 10007KT 19/14 A2999 RMK A01 T01850143  RH  080%=      5-min Rain = 0
KNOR 141000Z 10007KT 18/14 A2998 RMK A01 T01840143  RH  080%=      5-min Rain = 0
KNOR 141005Z 10007KT 18/14 A2998 RMK A01 T01840144  RH  081%=      5-min Rain = 0
KNOR 141010Z 10007KT 18/14 A2998 RMK A01 T01840143  RH  081%=      5-min Rain = 0
KNOR 141015Z 11007KT 18/14 A2998 RMK A01 T01840143  RH  080%=      5-min Rain = 0
KNOR 141020Z 10007KT 18/14 A2998 RMK A01 T01840143  RH  080%=      5-min Rain = 0
KNOR 141025Z 10008KT 18/14 A2998 RMK A01 T01840142  RH  080%=      5-min Rain = 0
KNOR 141030Z 10008KT 19/14 A2998 RMK A01 T01850141  RH  079%=      5-min Rain = 0
KNOR 141035Z 11010KT 19/14 A2997 RMK A01 T01850141  RH  079%=      5-min Rain = 0
KNOR 141040Z 12011KT 18/14 A2997 RMK A01 T01840142  RH  080%=      5-min Rain = 0
KNOR 141045Z 13011KT 18/14 A2996 RMK A01 T01830142  RH  080%=      5-min Rain = 0
KNOR 141050Z 13012G17KT 18/14 A2995 RMK A01 T01830142  RH  081%=      5-min Rain = 0
KNOR 141055Z 13014G20KT 19/14 A2995 RMK A01 T01850140  RH  078%=      5-min Rain = 0
KNOR 141100Z 13014G19KT 19/14 A2995 RMK A01 T01870139  RH  077%=      5-min Rain = 0
KNOR 141105Z 13014KT 19/14 A2995 RMK A01 T01880137  RH  076%=      5-min Rain = 0
KNOR 141110Z 13013KT 19/14 A2995 RMK A01 T01890135  RH  074%=      5-min Rain = 0
KNOR 141115Z 13014G19KT 19/13 A2994 RMK A01 T01900133  RH  072%=      5-min Rain = 0
KNOR 141120Z 14013KT 19/13 A2994 RMK A01 T01900133  RH  072%=      5-min Rain = 0
KNOR 141125Z 14015G22KT 19/13 A2994 RMK A01 T01910131  RH  071%=      5-min Rain = 0
KNOR 141130Z 14017G23KT 19/13 A2992 RMK A01 T01940131  RH  070%=      5-min Rain = 0
KNOR 141135Z 14014G19KT 19/13 A2992 RMK A01 T01940131  RH  070%=      5-min Rain = 0
KNOR 141140Z 15014G20KT 19/13 A2991 RMK A01 T01930131  RH  070%=      5-min Rain = 0
KNOR 141145Z 15016G23KT 19/13 A2991 RMK A01 T01930131  RH  070%=      5-min Rain = 0
KNOR 141150Z 15016G21KT 19/13 A299 RMK A01 T01930131  RH  070%=      5-min Rain = 0
KNOR 141155Z 15016G23KT 19/13 A299 RMK A01 T01930131  RH  070%=      5-min Rain = 0
KNOR 141200Z 16016G21KT 19/13 A2991 RMK A01 T01930132  RH  070%=      5-min Rain = 0
KNOR 141205Z 15017G23KT 19/13 A299 RMK A01 T01920132  RH  071%=      5-min Rain = 0
KNOR 141210Z 16019G26KT 19/13 A2988 RMK A01 T01920133  RH  072%=      5-min Rain = 0
KNOR 141215Z 16020G29KT 20/13 A2988 RMK A01 T01950134  RH  071%=      5-min Rain = 0
KNOR 141220Z 16019G26KT 20/13 A2988 RMK A01 T01970134  RH  070%=      5-min Rain = 0
KNOR 141225Z 16017G24KT 20/14 A2989 RMK A01 T01970135  RH  070%=      5-min Rain = 0
KNOR 141230Z 16015G22KT 20/14 A2989 RMK A01 T01980136  RH  070%=      5-min Rain = 0
KNOR 141235Z 16014G19KT 20/14 A299 RMK A01 T01980137  RH  071%=      5-min Rain = 0
KNOR 141240Z 17013G19KT 20/14 A299 RMK A01 T01990137  RH  070%=      5-min Rain = 0
KNOR 141245Z 17014G19KT 20/14 A2989 RMK A01 T02010138  RH  070%=      5-min Rain = 0
KNOR 141250Z 17014KT 20/14 A2989 RMK A01 T02020139  RH  070%=      5-min Rain = 0
KNOR 141255Z 17015KT 20/14 A2989 RMK A01 T02040140  RH  070%=      5-min Rain = 0
KNOR 141300Z 17015G24KT 21/14 A2989 RMK A01 T02050140  RH  069%=      5-min Rain = 0
KNOR 141305Z 17017G23KT 21/14 A2988 RMK A01 T02060140  RH  069%=      5-min Rain = 0
KNOR 141310Z 17018G24KT 21/14 A2988 RMK A01 T02050140  RH  069%=      5-min Rain = 0
KNOR 141315Z 17016G23KT 21/14 A2989 RMK A01 T02050141  RH  070%=      5-min Rain = 0
KNOR 141320Z 17016KT 21/14 A2989 RMK A01 T02050142  RH  070%=      5-min Rain = 0
KNOR 141325Z 17016G22KT 21/14 A2988 RMK A01 T02080143  RH  069%=      5-min Rain = 0
KNOR 141330Z 17018G24KT 21/15 A2988 RMK A01 T02110145  RH  069%=      5-min Rain = 0
KNOR 141335Z 18018G24KT 21/15 A2988 RMK A01 T02110145  RH  069%=      5-min Rain = 0
KNOR 141340Z 18016G21KT 21/15 A2988 RMK A01 T02130147  RH  069%=      5-min Rain = 0
KNOR 141345Z 18016G23KT 21/15 A2988 RMK A01 T02130148  RH  069%=      5-min Rain = 0
KNOR 141350Z 18017G24KT 22/15 A2988 RMK A01 T02160150  RH  069%=      5-min Rain = 0
KNOR 141355Z 18016G23KT 22/15 A2988 RMK A01 T02180151  RH  069%=      5-min Rain = 0
KNOR 141400Z 18019G25KT 22/15 A2988 RMK A01 T02210153  RH  068%=      5-min Rain = 0
KNOR 141405Z 18017G25KT 22/15 A2988 RMK A01 T02230154  RH  068%=      5-min Rain = 0
KNOR 141410Z 18018G25KT 23/16 A2988 RMK A01 T02250156  RH  068%=      5-min Rain = 0
KNOR 141415Z 19016G23KT 23/16 A2988 RMK A01 T02280158  RH  068%=      5-min Rain = 0
KNOR 141420Z 19018G26KT 24/16 A2988 RMK A01 T02360162  RH  066%=      5-min Rain = 0
KNOR 141425Z 19019G26KT 24/16 A2988 RMK A01 T02440164  RH  064%=      5-min Rain = 0
KNOR 141430Z 19020G29KT 24/16 A2987 RMK A01 T02430163  RH  064%=      5-min Rain = 0
KNOR 141435Z 19020G27KT 24/16 A2987 RMK A01 T02430163  RH  064%=      5-min Rain = 0
KNOR 141440Z 19018G24KT 25/16 A2987 RMK A01 T02460164  RH  063%=      5-min Rain = 0
KNOR 141445Z 19018G28KT 25/16 A2987 RMK A01 T02450164  RH  064%=      5-min Rain = 0
KNOR 141450Z 20015G25KT 25/17 A2988 RMK A01 T02530167  RH  062%=      5-min Rain = 0
KNOR 141455Z 20017G24KT 26/17 A2988 RMK A01 T02600168  RH  060%=      5-min Rain = 0
KNOR 141500Z 19017G22KT 26/17 A2987 RMK A01 T02570166  RH  060%=      5-min Rain = 0
KNOR 141505Z 20017G24KT 26/17 A2987 RMK A01 T02560167  RH  060%=      5-min Rain = 0
KNOR 141510Z 20015KT 26/17 A2987 RMK A01 T02580168  RH  061%=      5-min Rain = 0
KNOR 141515Z 19013G21KT 26/17 A2987 RMK A01 T02590170  RH  061%=      5-min Rain = 0
KNOR 141520Z 20016G22KT 26/17 A2987 RMK A01 T02620169  RH  059%=      5-min Rain = 0
KNOR 141525Z 20016G21KT 26/17 A2986 RMK A01 T02610168  RH  059%=      5-min Rain = 0
KNOR 141530Z 20015G23KT 27/17 A2986 RMK A01 T02650170  RH  059%=      5-min Rain = 0
KNOR 141535Z 20018G23KT 26/17 A2986 RMK A01 T02630168  RH  058%=      5-min Rain = 0
KNOR 141540Z 20017G23KT 27/17 A2986 RMK A01 T02650168  RH  058%=      5-min Rain = 0
KNOR 141545Z 20017G23KT 27/17 A2985 RMK A01 T02650168  RH  058%=      5-min Rain = 0
KNOR 141550Z 20017KT 26/17 A2985 RMK A01 T02640169  RH  059%=      5-min Rain = 0
KNOR 141555Z 20016G24KT 27/17 A2985 RMK A01 T02650168  RH  058%=      5-min Rain = 0
KNOR 141600Z 20018G24KT 26/17 A2985 RMK A01 T02620165  RH  058%=      5-min Rain = 0
KNOR 141605Z 20015G21KT 26/17 A2985 RMK A01 T02630167  RH  058%=      5-min Rain = 0
KNOR 141610Z 20016G21KT 26/17 A2985 RMK A01 T02640166  RH  058%=      5-min Rain = 0
KNOR 141615Z 20016G23KT 26/17 A2985 RMK A01 T02640167  RH  058%=      5-min Rain = 0
KNOR 141620Z 20015G20KT 27/17 A2985 RMK A01 T02670168  RH  058%=      5-min Rain = 0
KNOR 141625Z 20016G24KT 27/17 A2985 RMK A01 T02670167  RH  057%=      5-min Rain = 0
KNOR 141630Z 20015G20KT 27/17 A2985 RMK A01 T02670168  RH  057%=      5-min Rain = 0
KNOR 141635Z 20016G23KT 27/17 A2985 RMK A01 T02680169  RH  057%=      5-min Rain = 0
KNOR 141640Z 20016G23KT 27/17 A2985 RMK A01 T02700169  RH  057%=      5-min Rain = 0
KNOR 141645Z 20015G21KT 28/17 A2984 RMK A01 T02760172  RH  056%=      5-min Rain = 0
KNOR 141650Z 20015G20KT 28/17 A2984 RMK A01 T02800172  RH  055%=      5-min Rain = 0
KNOR 141655Z 20016G21KT 28/17 A2984 RMK A01 T02810172  RH  054%=      5-min Rain = 0
KNOR 141700Z 20017G23KT 29/17 A2984 RMK A01 T02870173  RH  053%=      5-min Rain = 0
KNOR 141705Z 20015G23KT 29/18 A2984 RMK A01 T02930176  RH  052%=      5-min Rain = 0
KNOR 141710Z 20017G24KT 29/17 A2984 RMK A01 T02940172  RH  050%=      5-min Rain = 0
KNOR 141715Z 20016G23KT 30/17 A2984 RMK A01 T02950172  RH  050%=      5-min Rain = 0
KNOR 141720Z 20015G22KT 30/17 A2984 RMK A01 T02970172  RH  050%=      5-min Rain = 0
KNOR 141725Z 20016G21KT 30/18 A2984 RMK A01 T03010175  RH  049%=      5-min Rain = 0
KNOR 141730Z 19015G21KT 30/18 A2984 RMK A01 T03010175  RH  049%=      5-min Rain = 0
KNOR 141735Z 19017G23KT 30/18 A2984 RMK A01 T03020175  RH  049%=      5-min Rain = 0
KNOR 141740Z 20017G24KT 31/17 A2983 RMK A01 T03070173  RH  047%=      5-min Rain = 0
KNOR 141745Z 20017G22KT 31/17 A2983 RMK A01 T03120172  RH  045%=      5-min Rain = 0
KNOR 141750Z 20014G21KT 32/17 A2983 RMK A01 T03170173  RH  044%=      5-min Rain = 0
KNOR 141755Z 20015G24KT 31/17 A2983 RMK A01 T03130170  RH  044%=      5-min Rain = 0
KNOR 141800Z 20016G24KT 31/17 A2983 RMK A01 T03090169  RH  045%=      5-min Rain = 0
KNOR 141805Z 20019G24KT 31/17 A2983 RMK A01 T03060166  RH  045%=      5-min Rain = 0
KNOR 141810Z 20017G23KT 31/17 A2983 RMK A01 T03060166  RH  045%=      5-min Rain = 0
KNOR 141815Z 20014G24KT 31/17 A2983 RMK A01 T03100169  RH  045%=      5-min Rain = 0
KNOR 141820Z 20017G23KT 32/17 A2982 RMK A01 T03180168  RH  043%=      5-min Rain = 0
KNOR 141825Z 20016G25KT 31/17 A2982 RMK A01 T03130170  RH  044%=      5-min Rain = 0
KNOR 141830Z 20020G26KT 31/17 A2982 RMK A01 T03070165  RH  045%=      5-min Rain = 0
KNOR 141835Z 20017G24KT 31/17 A2982 RMK A01 T03070165  RH  045%=      5-min Rain = 0
KNOR 141840Z 19017G24KT 31/16 A2982 RMK A01 T03090163  RH  044%=      5-min Rain = 0
KNOR 141845Z 20015G24KT 31/17 A2982 RMK A01 T03100166  RH  044%=      5-min Rain = 0
KNOR 141850Z 19015G21KT 32/17 A2982 RMK A01 T03160171  RH  044%=      5-min Rain = 0
KNOR 141855Z 19018G24KT 32/17 A2982 RMK A01 T03190169  RH  043%=      5-min Rain = 0
KNOR 141900Z 18017G24KT 32/17 A2981 RMK A01 T03230169  RH  042%=      5-min Rain = 0
KNOR 141905Z 19017G23KT 33/17 A2981 RMK A01 T03260171  RH  042%=      5-min Rain = 0
KNOR 141910Z 21017G24KT 33/17 A2981 RMK A01 T03310168  RH  040%=      5-min Rain = 0
KNOR 141915Z 20016G22KT 34/17 A2981 RMK A01 T03360171  RH  039%=      5-min Rain = 0
KNOR 141920Z 19017G23KT 34/17 A2981 RMK A01 T03350170  RH  040%=      5-min Rain = 0
KNOR 141925Z 19020G25KT 33/17 A2981 RMK A01 T03320167  RH  039%=      5-min Rain = 0
KNOR 141930Z 20017G25KT 33/17 A2981 RMK A01 T03330169  RH  039%=      5-min Rain = 0
KNOR 141935Z 20015G22KT 33/17 A2981 RMK A01 T03330166  RH  039%=      5-min Rain = 0
KNOR 141940Z 19018G27KT 34/17 A2981 RMK A01 T03350167  RH  039%=      5-min Rain = 0
KNOR 141945Z 19018G25KT 33/16 A2981 RMK A01 T03310164  RH  039%=      5-min Rain = 0
KNOR 141950Z 19020G26KT 33/16 A298 RMK A01 T03310164  RH  039%=      5-min Rain = 0
KNOR 141955Z 19014G22KT 34/17 A298 RMK A01 T03350170  RH  039%=      5-min Rain = 0
KNOR 142000Z 19019G26KT 33/16 A298 RMK A01 T03320162  RH  038%=      5-min Rain = 0
KNOR 142005Z 19018G24KT 33/16 A298 RMK A01 T03340162  RH  037%=      5-min Rain = 0
KNOR 142010Z 18018G24KT 33/17 A2979 RMK A01 T03280165  RH  039%=      5-min Rain = 0
KNOR 142015Z 19017G25KT 32/17 A2979 RMK A01 T03230166  RH  041%=      5-min Rain = 0
KNOR 142020Z 19017G23KT 33/17 A2979 RMK A01 T03270167  RH  040%=      5-min Rain = 0
KNOR 142025Z 19017G22KT 33/17 A2979 RMK A01 T03300167  RH  040%=      5-min Rain = 0
KNOR 142030Z 18018G26KT 33/17 A2979 RMK A01 T03320166  RH  039%=      5-min Rain = 0
KNOR 142035Z 18018G24KT 33/17 A2978 RMK A01 T03290167  RH  040%=      5-min Rain = 0
KNOR 142040Z 18018G23KT 33/17 A2978 RMK A01 T03300168  RH  040%=      5-min Rain = 0
KNOR 142045Z 18019G27KT 34/17 A2978 RMK A01 T03390168  RH  038%=      5-min Rain = 0
KNOR 142050Z 18019G25KT 34/17 A2978 RMK A01 T03380167  RH  038%=      5-min Rain = 0
KNOR 142055Z 18019G26KT 34/17 A2977 RMK A01 T03410167  RH  037%=      5-min Rain = 0
KNOR 142100Z 18018G24KT 34/16 A2977 RMK A01 T03410164  RH  037%=      5-min Rain = 0
KNOR 142105Z 19017G23KT 35/17 A2977 RMK A01 T03450166  RH  036%=      5-min Rain = 0
KNOR 142110Z 18017G23KT 34/17 A2977 RMK A01 T03420165  RH  037%=      5-min Rain = 0
KNOR 142115Z 18018G23KT 35/17 A2977 RMK A01 T03470165  RH  036%=      5-min Rain = 0
KNOR 142120Z 18016G23KT 35/17 A2976 RMK A01 T03460169  RH  037%=      5-min Rain = 0
KNOR 142125Z 19018G27KT 35/17 A2976 RMK A01 T03480165  RH  035%=      5-min Rain = 0
KNOR 142130Z 19020G26KT 35/16 A2976 RMK A01 T03460163  RH  035%=      5-min Rain = 0
KNOR 142135Z 18020G28KT 34/16 A2976 RMK A01 T03430163  RH  036%=      5-min Rain = 0
KNOR 142140Z 20020G27KT 35/16 A2976 RMK A01 T03490157  RH  033%=      5-min Rain = 0
KNOR 142145Z 19017G26KT 35/16 A2976 RMK A01 T03520157  RH  033%=      5-min Rain = 0
KNOR 142150Z 18018G27KT 35/16 A2976 RMK A01 T03460157  RH  034%=      5-min Rain = 0
KNOR 142155Z 19019G26KT 34/16 A2975 RMK A01 T03430158  RH  035%=      5-min Rain = 0
KNOR 142200Z 18018G23KT 35/16 A2975 RMK A01 T03450162  RH  035%=      5-min Rain = 0
KNOR 142205Z 19016G21KT 34/16 A2975 RMK A01 T03360162  RH  037%=      5-min Rain = 0
KNOR 142210Z 19015G22KT 33/16 A2975 RMK A01 T03300161  RH  038%=      5-min Rain = 0
KNOR 142215Z 19011G17KT 33/16 A2975 RMK A01 T03290164  RH  039%=      5-min Rain = 0
KNOR 142220Z 19016G22KT 33/16 A2974 RMK A01 T03340161  RH  037%=      5-min Rain = 0
KNOR 142225Z 19017G23KT 34/16 A2974 RMK A01 T03400159  RH  035%=      5-min Rain = 0
KNOR 142230Z 19015G20KT 34/16 A2974 RMK A01 T03430163  RH  036%=      5-min Rain = 0
KNOR 142235Z 18018G25KT 35/16 A2974 RMK A01 T03500164  RH  035%=      5-min Rain = 0
KNOR 142240Z 18018G26KT 34/16 A2974 RMK A01 T03430158  RH  035%=      5-min Rain = 0
KNOR 142245Z 18019G25KT 34/16 A2974 RMK A01 T03440158  RH  034%=      5-min Rain = 0
KNOR 142250Z 18018G25KT 35/16 A2973 RMK A01 T03470159  RH  034%=      5-min Rain = 0
KNOR 142255Z 18019G25KT 35/16 A2973 RMK A01 T03470158  RH  034%=      5-min Rain = 0
KNOR 142300Z 18018G24KT 35/16 A2973 RMK A01 T03470159  RH  034%=      5-min Rain = 0
KNOR 142305Z 18018G24KT 35/16 A2973 RMK A01 T03460157  RH  034%=      5-min Rain = 0
KNOR 142310Z 17017G24KT 35/16 A2973 RMK A01 T03460160  RH  035%=      5-min Rain = 0
KNOR 142315Z 18017G22KT 35/16 A2973 RMK A01 T03450161  RH  035%=      5-min Rain = 0
KNOR 142320Z 17017G24KT 34/16 A2972 RMK A01 T03410162  RH  036%=      5-min Rain = 0
KNOR 142325Z 17018G25KT 34/16 A2973 RMK A01 T03350161  RH  037%=      5-min Rain = 0
KNOR 142330Z 17016G21KT 33/16 A2972 RMK A01 T03310164  RH  039%=      5-min Rain = 0
KNOR 142335Z 17016KT 33/16 A2972 RMK A01 T03280163  RH  039%=      5-min Rain = 0
KNOR 142340Z 17014G22KT 33/17 A2972 RMK A01 T03260165  RH  040%=      5-min Rain = 0
KNOR 142345Z 17017G25KT 33/16 A2972 RMK A01 T03260161  RH  039%=      5-min Rain = 0
KNOR 142350Z 17015G20KT 32/16 A2972 RMK A01 T03240161  RH  039%=      5-min Rain = 0
KNOR 142355Z 17016G21KT 32/16 A2972 RMK A01 T03230161  RH  040%=      5-min Rain = 0
KNOR 150000Z 16014G19KT 32/16 A2972 RMK A01 T03210163  RH  041%=      5-min Rain = 0
KNOR 150005Z 17015KT 32/16 A2972 RMK A01 T03200164  RH  041%=      5-min Rain = 0
KNOR 150010Z 17014G20KT 32/17 A2972 RMK A01 T03210165  RH  041%=      5-min Rain = 0
KNOR 150015Z 17015G21KT 32/17 A2972 RMK A01 T03210165  RH  041%=      5-min Rain = 0
KNOR 150020Z 17013G20KT 32/17 A2972 RMK A01 T03210165  RH  041%=      5-min Rain = 0
KNOR 150025Z 17014G19KT 32/16 A2972 RMK A01 T03190164  RH  041%=      5-min Rain = 0
KNOR 150030Z 17014KT 32/16 A2972 RMK A01 T03190163  RH  041%=      5-min Rain = 0
KNOR 150035Z 17014G20KT 32/16 A2972 RMK A01 T03180161  RH  041%=      5-min Rain = 0
KNOR 150040Z 17012KT 32/16 A2973 RMK A01 T03160162  RH  042%=      5-min Rain = 0
KNOR 150045Z 16012G17KT 31/16 A2973 RMK A01 T03120164  RH  043%=      5-min Rain = 0
KNOR 150050Z 16012KT 31/17 A2973 RMK A01 T03100165  RH  044%=      5-min Rain = 0
KNOR 150055Z 16012KT 31/17 A2973 RMK A01 T03070166  RH  045%=      5-min Rain = 0
KNOR 150100Z 16011KT 31/17 A2973 RMK A01 T03060166  RH  045%=      5-min Rain = 0
KNOR 150105Z 15011KT 31/17 A2973 RMK A01 T03050166  RH  045%=      5-min Rain = 0
KNOR 150110Z 15010KT 30/17 A2973 RMK A01 T03040166  RH  046%=      5-min Rain = 0
KNOR 150115Z 15011KT 30/17 A2973 RMK A01 T03040165  RH  046%=      5-min Rain = 0
KNOR 150120Z 15012KT 30/16 A2973 RMK A01 T03040164  RH  045%=      5-min Rain = 0
KNOR 150125Z 15012G18KT 30/16 A2973 RMK A01 T03030164  RH  045%=      5-min Rain = 0
KNOR 150130Z 15012KT 30/16 A2973 RMK A01 T03020164  RH  046%=      5-min Rain = 0
KNOR 150135Z 15010KT 30/16 A2973 RMK A01 T03000164  RH  046%=      5-min Rain = 0
KNOR 150140Z 15010KT 30/17 A2973 RMK A01 T02980165  RH  047%=      5-min Rain = 0
KNOR 150145Z 14010KT 30/16 A2973 RMK A01 T02980164  RH  047%=      5-min Rain = 0
KNOR 150150Z 13009KT 30/16 A2973 RMK A01 T02970164  RH  047%=      5-min Rain = 0
KNOR 150155Z 13008KT 30/16 A2974 RMK A01 T02960163  RH  047%=      5-min Rain = 0
KNOR 150200Z 13009KT 30/16 A2974 RMK A01 T02950163  RH  047%=      5-min Rain = 0
KNOR 150205Z 12008KT 29/16 A2974 RMK A01 T02930163  RH  048%=      5-min Rain = 0
KNOR 150210Z 11008KT 29/16 A2973 RMK A01 T02910164  RH  048%=      5-min Rain = 0
KNOR 150215Z 11008KT 29/16 A2973 RMK A01 T02860164  RH  050%=      5-min Rain = 0
KNOR 150220Z 11009G14KT 29/16 A2973 RMK A01 T02860163  RH  050%=      5-min Rain = 0
KNOR 150225Z 12009G14KT 29/16 A2972 RMK A01 T02850163  RH  050%=      5-min Rain = 0
KNOR 150230Z 13010KT 28/16 A2973 RMK A01 T02840164  RH  050%=      5-min Rain = 0
KNOR 150235Z 14012KT 29/16 A2973 RMK A01 T02850164  RH  050%=      5-min Rain = 0
KNOR 150240Z 14013G18KT 29/17 A2973 RMK A01 T02860165  RH  050%=      5-min Rain = 0
KNOR 150245Z 15013G19KT 29/17 A2973 RMK A01 T02850165  RH  051%=      5-min Rain = 0
KNOR 150250Z 15014KT 29/17 A2973 RMK A01 T02850166  RH  051%=      5-min Rain = 0
KNOR 150255Z 16015KT 29/17 A2974 RMK A01 T02850166  RH  051%=      5-min Rain = 0
KNOR 150300Z 17013KT 28/17 A2975 RMK A01 T02840167  RH  052%=      5-min Rain = 0
KNOR 150305Z 18014G19KT 28/17 A2975 RMK A01 T02840168  RH  052%=      5-min Rain = 0
KNOR 150310Z 18013KT 28/17 A2976 RMK A01 T02830168  RH  052%=      5-min Rain = 0
KNOR 150315Z 18013KT 28/17 A2976 RMK A01 T02820169  RH  053%=      5-min Rain = 0
KNOR 150320Z 17013G18KT 28/17 A2975 RMK A01 T02810169  RH  053%=      5-min Rain = 0
KNOR 150325Z 17016G21KT 28/17 A2974 RMK A01 T02830167  RH  052%=      5-min Rain = 0
KNOR 150330Z 18016G21KT 28/17 A2974 RMK A01 T02830166  RH  051%=      5-min Rain = 0
KNOR 150335Z 18016G21KT 28/16 A2974 RMK A01 T02840164  RH  050%=      5-min Rain = 0
KNOR 150340Z 18017G23KT 28/16 A2974 RMK A01 T02840164  RH  051%=      5-min Rain = 0
KNOR 150345Z 18019G25KT 28/17 A2974 RMK A01 T02840166  RH  051%=      5-min Rain = 0
KNOR 150350Z 18021G31KT 28/17 A2974 RMK A01 T02830168  RH  052%=      5-min Rain = 0
KNOR 150355Z 18024G31KT 28/17 A2974 RMK A01 T02830170  RH  053%=      5-min Rain = 0
KNOR 150400Z 19023G29KT 28/17 A2974 RMK A01 T02810171  RH  054%=      5-min Rain = 0
KNOR 150405Z 18024G32KT 28/17 A2973 RMK A01 T02810170  RH  053%=      5-min Rain = 0
KNOR 150410Z 17026G32KT 28/17 A2972 RMK A01 T02830168  RH  052%=      5-min Rain = 0
KNOR 150415Z 16028G34KT 29/17 A2971 RMK A01 T02860165  RH  050%=      5-min Rain = 0
KNOR 150420Z 18027G36KT 29/16 A2971 RMK A01 T02910157  RH  046%=      5-min Rain = 0
KNOR 150425Z 17026G36KT 29/16 A2972 RMK A01 T02870164  RH  050%=      5-min Rain = 0
KNOR 150430Z 19019G25KT 29/16 A2974 RMK A01 T02880160  RH  048%=      5-min Rain = 0
KNOR 150435Z 19024G39KT 30/16 A2974 RMK A01 T02950156  RH  045%=      5-min Rain = 0
KNOR 150440Z 19028G35KT 29/16 A2974 RMK A01 T02930158  RH  046%=      5-min Rain = 0
KNOR 150445Z 18024G31KT 29/16 A2975 RMK A01 T02900160  RH  048%=      5-min Rain = 0
KNOR 150450Z 19023G29KT 29/16 A2975 RMK A01 T02850161  RH  049%=      5-min Rain = 0
KNOR 150455Z 19023G30KT 28/16 A2975 RMK A01 T02840162  RH  050%=      5-min Rain = 0

Page generated in 0.0106 seconds.